Main page
METAR-TAF:

METAR-TAF

Airports :

Nueva Hesperides International Airport

Salto, Uruguay

latitude: 31-23S, longitude: 057-57W, elevation: 34 m

Current weather observation

The report was made 57 minutes ago, at 18:00 UTC
Wind 10 kt from the Southeast
Temperature 32°C
Humidity 46%
Pressure 1012 hPa
Visibility 10 km or more
Broken clouds at a height of 2700 ft

METAR: SUSO 291800Z 14010KT 9999 BKN027 32/19 Q1012

Time: 15:57 (18:57 UTC)

Forecast

The report was made 1 hour and 27 minutes ago, at 17:30 UTC
Forecast valid from 29 at 18 UTC to 30 at 18 UTC
Wind 8 kt from the East
Visibility 10 km or more
Scattered clouds at a height of 2300 ft
Probability 30% :
Temporary
from 30 at 07 UTC to 30 at 10 UTC
Visibility: 5000 m
Broken clouds at a height of 800 ft
mist

TAF: SUSO 291730Z 2918/3018 10008KT 9999 SCT023 TX33/3018Z TN19/3009Z PROB30 TEMPO 3007/3010 5000 BR BKN008

Weather observations and forecasts of more than 4000 airports (METAR and TAF reports).

The available stations are represented by yellow and red dots on the map.

Hover mouse over dot to see the name of the station.

Then click to see weather observations and forecasts.

To change the map : click on the green buttons with a black cross to zoom in, on the green button with a dash to zoom out, or on the green arrows for adjacent maps.


METAR-TAF: